Main page
METAR-TAF:

METAR-TAF

Airports :

Brive–Dordogne Valley Airport

Brive-la-Gaillarde, France

latitude: 45-02-28N, longitude: 001-28-59E, elevation: 311 m

Current weather observation

The report was made 14 minutes ago, at 01:00 UTC
Calm wind
Temperature 1°C
Humidity 86%
Pressure 1021 hPa
Visibility 10 km or more
no clouds below 1500 m and no cumulonimbus

METAR: LFSL 060100Z AUTO 00000KT CAVOK 01/M01 Q1021

Time: 02:14 (01:14 UTC)

Forecast

The report was made 8 hours and 14 minutes ago, at 17:00 UTC
Forecast valid from 05 at 18 UTC to 06 at 03 UTC
Wind 10 kt from the North
Visibility 10 km or more
no clouds below 1500 m and no cumulonimbus
Becoming
from 05 at 21 UTC to 05 at 23 UTC
Wind 2 kt from variable directions

TAF: LFSL 051700Z 0518/0603 01010KT CAVOK BECMG 0521/0523 VRB02KT

Weather observations and forecasts of more than 4000 airports (METAR and TAF reports).

The available stations are represented by yellow and red dots on the map.

Hover mouse over dot to see the name of the station.

Then click to see weather observations and forecasts.

To change the map : click on the green buttons with a black cross to zoom in, on the green button with a dash to zoom out, or on the green arrows for adjacent maps.


METAR-TAF: